sensor_id;sensor_type;location;lat;lon;timestamp;P1;durP1;ratioP1;P2;durP2;ratioP2
18140;SDS011;9196;49.194;12.526;2023-08-20T00:01:17;7.57;;;6.40;;
18140;SDS011;9196;49.194;12.526;2023-08-20T00:03:49;6.80;;;6.27;;
18140;SDS011;9196;49.194;12.526;2023-08-20T00:06:18;9.97;;;6.07;;
18140;SDS011;9196;49.194;12.526;2023-08-20T00:08:45;6.80;;;6.20;;
18140;SDS011;9196;49.194;12.526;2023-08-20T00:11:13;11.80;;;6.70;;
18140;SDS011;9196;49.194;12.526;2023-08-20T00:13:40;6.20;;;5.70;;
18140;SDS011;9196;49.194;12.526;2023-08-20T00:16:08;6.00;;;5.60;;
18140;SDS011;9196;49.194;12.526;2023-08-20T00:18:35;7.00;;;6.03;;
18140;SDS011;9196;49.194;12.526;2023-08-20T00:21:03;11.93;;;6.40;;
18140;SDS011;9196;49.194;12.526;2023-08-20T00:23:31;13.63;;;6.60;;
18140;SDS011;9196;49.194;12.526;2023-08-20T00:25:58;6.93;;;6.30;;
18140;SDS011;9196;49.194;12.526;2023-08-20T00:28:28;6.50;;;5.90;;
18140;SDS011;9196;49.194;12.526;2023-08-20T00:30:55;6.60;;;6.00;;
18140;SDS011;9196;49.194;12.526;2023-08-20T00:33:22;6.27;;;5.77;;
18140;SDS011;9196;49.194;12.526;2023-08-20T00:35:49;8.43;;;6.97;;
18140;SDS011;9196;49.194;12.526;2023-08-20T00:38:16;6.87;;;6.17;;
18140;SDS011;9196;49.194;12.526;2023-08-20T00:40:43;6.47;;;5.87;;
18140;SDS011;9196;49.194;12.526;2023-08-20T00:43:10;7.43;;;6.83;;
18140;SDS011;9196;49.194;12.526;2023-08-20T00:45:38;6.50;;;5.90;;
18140;SDS011;9196;49.194;12.526;2023-08-20T00:48:07;6.20;;;5.60;;
18140;SDS011;9196;49.194;12.526;2023-08-20T00:50:34;6.57;;;6.10;;
18140;SDS011;9196;49.194;12.526;2023-08-20T00:53:01;7.43;;;6.70;;
18140;SDS011;9196;49.194;12.526;2023-08-20T00:55:28;10.93;;;7.10;;
18140;SDS011;9196;49.194;12.526;2023-08-20T00:57:55;6.47;;;5.93;;
18140;SDS011;9196;49.194;12.526;2023-08-20T01:00:23;7.90;;;6.40;;
18140;SDS011;9196;49.194;12.526;2023-08-20T01:02:51;7.17;;;6.57;;
18140;SDS011;9196;49.194;12.526;2023-08-20T01:05:18;6.13;;;5.73;;
18140;SDS011;9196;49.194;12.526;2023-08-20T01:07:48;8.23;;;6.43;;
18140;SDS011;9196;49.194;12.526;2023-08-20T01:10:25;6.90;;;6.40;;
18140;SDS011;9196;49.194;12.526;2023-08-20T01:13:00;7.90;;;7.20;;
18140;SDS011;9196;49.194;12.526;2023-08-20T01:15:28;8.50;;;7.70;;
18140;SDS011;9196;49.194;12.526;2023-08-20T01:17:56;6.77;;;6.13;;
18140;SDS011;9196;49.194;12.526;2023-08-20T01:20:29;8.30;;;5.90;;
18140;SDS011;9196;49.194;12.526;2023-08-20T01:23:21;9.23;;;7.43;;
18140;SDS011;9196;49.194;12.526;2023-08-20T01:26:08;8.13;;;6.60;;
18140;SDS011;9196;49.194;12.526;2023-08-20T01:28:48;7.30;;;6.70;;
18140;SDS011;9196;49.194;12.526;2023-08-20T01:31:15;7.37;;;6.77;;
18140;SDS011;9196;49.194;12.526;2023-08-20T01:33:42;7.60;;;6.90;;
18140;SDS011;9196;49.194;12.526;2023-08-20T01:36:09;9.60;;;7.30;;
18140;SDS011;9196;49.194;12.526;2023-08-20T01:38:36;13.80;;;7.83;;
18140;SDS011;9196;49.194;12.526;2023-08-20T01:41:03;7.17;;;6.47;;
18140;SDS011;9196;49.194;12.526;2023-08-20T01:43:30;8.10;;;7.30;;
18140;SDS011;9196;49.194;12.526;2023-08-20T01:45:58;7.47;;;6.87;;
18140;SDS011;9196;49.194;12.526;2023-08-20T01:48:25;7.53;;;6.93;;
18140;SDS011;9196;49.194;12.526;2023-08-20T01:50:52;7.87;;;7.27;;
18140;SDS011;9196;49.194;12.526;2023-08-20T01:53:19;7.03;;;6.30;;
18140;SDS011;9196;49.194;12.526;2023-08-20T01:55:46;11.93;;;7.50;;
18140;SDS011;9196;49.194;12.526;2023-08-20T01:58:13;8.90;;;8.00;;
18140;SDS011;9196;49.194;12.526;2023-08-20T02:00:40;7.60;;;6.97;;
18140;SDS011;9196;49.194;12.526;2023-08-20T02:03:08;9.60;;;7.33;;
18140;SDS011;9196;49.194;12.526;2023-08-20T02:05:35;9.97;;;8.10;;
18140;SDS011;9196;49.194;12.526;2023-08-20T02:08:03;17.73;;;6.53;;
18140;SDS011;9196;49.194;12.526;2023-08-20T02:10:30;9.60;;;7.40;;
18140;SDS011;9196;49.194;12.526;2023-08-20T02:12:57;8.63;;;7.70;;
18140;SDS011;9196;49.194;12.526;2023-08-20T02:15:24;7.73;;;7.13;;
18140;SDS011;9196;49.194;12.526;2023-08-20T02:17:51;8.00;;;7.30;;
18140;SDS011;9196;49.194;12.526;2023-08-20T02:20:19;12.73;;;7.27;;
18140;SDS011;9196;49.194;12.526;2023-08-20T02:22:46;9.80;;;6.80;;
18140;SDS011;9196;49.194;12.526;2023-08-20T02:25:13;9.20;;;7.87;;
18140;SDS011;9196;49.194;12.526;2023-08-20T02:27:39;8.27;;;7.57;;
18140;SDS011;9196;49.194;12.526;2023-08-20T02:30:07;7.50;;;6.80;;
18140;SDS011;9196;49.194;12.526;2023-08-20T02:32:34;7.77;;;6.90;;
18140;SDS011;9196;49.194;12.526;2023-08-20T02:35:01;7.83;;;7.03;;
18140;SDS011;9196;49.194;12.526;2023-08-20T02:37:31;9.37;;;8.13;;
18140;SDS011;9196;49.194;12.526;2023-08-20T02:39:58;7.60;;;6.80;;
18140;SDS011;9196;49.194;12.526;2023-08-20T02:42:25;7.40;;;6.70;;
18140;SDS011;9196;49.194;12.526;2023-08-20T02:44:52;7.53;;;6.83;;
18140;SDS011;9196;49.194;12.526;2023-08-20T02:47:19;7.93;;;7.20;;
18140;SDS011;9196;49.194;12.526;2023-08-20T02:49:46;7.07;;;6.47;;
18140;SDS011;9196;49.194;12.526;2023-08-20T02:52:13;7.83;;;6.97;;
18140;SDS011;9196;49.194;12.526;2023-08-20T02:54:41;7.47;;;6.77;;
18140;SDS011;9196;49.194;12.526;2023-08-20T02:57:08;9.90;;;6.90;;
18140;SDS011;9196;49.194;12.526;2023-08-20T02:59:34;9.50;;;6.03;;
18140;SDS011;9196;49.194;12.526;2023-08-20T03:02:01;6.73;;;6.13;;
18140;SDS011;9196;49.194;12.526;2023-08-20T03:04:29;7.93;;;7.13;;
18140;SDS011;9196;49.194;12.526;2023-08-20T03:06:55;8.53;;;7.73;;
18140;SDS011;9196;49.194;12.526;2023-08-20T03:09:22;8.10;;;7.30;;
18140;SDS011;9196;49.194;12.526;2023-08-20T03:11:50;7.33;;;6.73;;
18140;SDS011;9196;49.194;12.526;2023-08-20T03:14:17;7.13;;;6.50;;
18140;SDS011;9196;49.194;12.526;2023-08-20T03:16:44;10.10;;;8.03;;
18140;SDS011;9196;49.194;12.526;2023-08-20T03:19:11;7.60;;;6.90;;
18140;SDS011;9196;49.194;12.526;2023-08-20T03:21:40;8.10;;;7.50;;
18140;SDS011;9196;49.194;12.526;2023-08-20T03:24:07;8.50;;;7.13;;
18140;SDS011;9196;49.194;12.526;2023-08-20T03:26:34;10.50;;;8.10;;
18140;SDS011;9196;49.194;12.526;2023-08-20T03:29:03;8.17;;;7.43;;
18140;SDS011;9196;49.194;12.526;2023-08-20T03:31:30;7.83;;;7.03;;
18140;SDS011;9196;49.194;12.526;2023-08-20T03:33:57;9.63;;;7.47;;
18140;SDS011;9196;49.194;12.526;2023-08-20T03:36:24;7.93;;;7.13;;
18140;SDS011;9196;49.194;12.526;2023-08-20T03:38:51;8.50;;;7.67;;
18140;SDS011;9196;49.194;12.526;2023-08-20T03:41:17;7.63;;;6.93;;
18140;SDS011;9196;49.194;12.526;2023-08-20T03:43:44;7.80;;;7.13;;
18140;SDS011;9196;49.194;12.526;2023-08-20T03:46:12;10.33;;;6.83;;
18140;SDS011;9196;49.194;12.526;2023-08-20T03:48:39;9.27;;;6.50;;
18140;SDS011;9196;49.194;12.526;2023-08-20T03:51:06;8.27;;;7.27;;
18140;SDS011;9196;49.194;12.526;2023-08-20T03:53:33;11.60;;;8.33;;
18140;SDS011;9196;49.194;12.526;2023-08-20T03:56:00;8.40;;;7.70;;
18140;SDS011;9196;49.194;12.526;2023-08-20T03:58:27;8.10;;;7.50;;
18140;SDS011;9196;49.194;12.526;2023-08-20T04:00:53;9.13;;;7.20;;
18140;SDS011;9196;49.194;12.526;2023-08-20T04:03:23;8.00;;;7.40;;
18140;SDS011;9196;49.194;12.526;2023-08-20T04:05:49;7.07;;;6.47;;
18140;SDS011;9196;49.194;12.526;2023-08-20T04:08:16;8.40;;;7.60;;
18140;SDS011;9196;49.194;12.526;2023-08-20T04:10:43;9.37;;;7.80;;
18140;SDS011;9196;49.194;12.526;2023-08-20T04:13:11;8.13;;;7.43;;
18140;SDS011;9196;49.194;12.526;2023-08-20T04:15:38;8.83;;;7.93;;
18140;SDS011;9196;49.194;12.526;2023-08-20T04:18:05;7.57;;;6.87;;
18140;SDS011;9196;49.194;12.526;2023-08-20T04:20:34;8.07;;;7.33;;
18140;SDS011;9196;49.194;12.526;2023-08-20T04:23:00;11.60;;;7.40;;
18140;SDS011;9196;49.194;12.526;2023-08-20T04:25:27;8.67;;;7.83;;
18140;SDS011;9196;49.194;12.526;2023-08-20T04:27:54;7.03;;;6.43;;
18140;SDS011;9196;49.194;12.526;2023-08-20T04:30:21;8.23;;;7.00;;
18140;SDS011;9196;49.194;12.526;2023-08-20T04:32:48;12.83;;;7.60;;
18140;SDS011;9196;49.194;12.526;2023-08-20T04:35:15;9.70;;;6.97;;
18140;SDS011;9196;49.194;12.526;2023-08-20T04:37:43;8.03;;;7.30;;
18140;SDS011;9196;49.194;12.526;2023-08-20T04:40:10;9.17;;;7.20;;
18140;SDS011;9196;49.194;12.526;2023-08-20T04:42:38;11.90;;;8.20;;
18140;SDS011;9196;49.194;12.526;2023-08-20T04:45:05;10.57;;;7.43;;
18140;SDS011;9196;49.194;12.526;2023-08-20T04:47:32;10.13;;;7.10;;
18140;SDS011;9196;49.194;12.526;2023-08-20T04:49:59;7.80;;;7.20;;
18140;SDS011;9196;49.194;12.526;2023-08-20T04:52:26;8.97;;;8.07;;
18140;SDS011;9196;49.194;12.526;2023-08-20T04:54:54;8.13;;;7.40;;
18140;SDS011;9196;49.194;12.526;2023-08-20T04:57:21;8.50;;;7.70;;
18140;SDS011;9196;49.194;12.526;2023-08-20T04:59:49;9.03;;;7.50;;
18140;SDS011;9196;49.194;12.526;2023-08-20T05:02:15;19.20;;;8.40;;
18140;SDS011;9196;49.194;12.526;2023-08-20T05:04:42;9.20;;;8.37;;
18140;SDS011;9196;49.194;12.526;2023-08-20T05:07:09;9.70;;;7.40;;
18140;SDS011;9196;49.194;12.526;2023-08-20T05:09:36;7.83;;;7.10;;
18140;SDS011;9196;49.194;12.526;2023-08-20T05:12:05;7.40;;;6.70;;
18140;SDS011;9196;49.194;12.526;2023-08-20T05:14:32;8.20;;;7.50;;
18140;SDS011;9196;49.194;12.526;2023-08-20T05:16:59;11.40;;;8.90;;
18140;SDS011;9196;49.194;12.526;2023-08-20T05:19:26;9.00;;;8.10;;
18140;SDS011;9196;49.194;12.526;2023-08-20T05:21:53;8.13;;;7.37;;
18140;SDS011;9196;49.194;12.526;2023-08-20T05:24:23;8.73;;;7.03;;
18140;SDS011;9196;49.194;12.526;2023-08-20T05:27:03;8.10;;;7.40;;
18140;SDS011;9196;49.194;12.526;2023-08-20T05:29:32;8.03;;;7.40;;
18140;SDS011;9196;49.194;12.526;2023-08-20T05:31:59;9.70;;;8.43;;
18140;SDS011;9196;49.194;12.526;2023-08-20T05:34:26;8.73;;;7.93;;
18140;SDS011;9196;49.194;12.526;2023-08-20T05:36:53;8.63;;;7.93;;
18140;SDS011;9196;49.194;12.526;2023-08-20T05:39:20;9.60;;;8.70;;
18140;SDS011;9196;49.194;12.526;2023-08-20T05:41:48;8.07;;;7.20;;
18140;SDS011;9196;49.194;12.526;2023-08-20T05:44:16;9.40;;;8.60;;
18140;SDS011;9196;49.194;12.526;2023-08-20T05:46:43;8.97;;;8.17;;
18140;SDS011;9196;49.194;12.526;2023-08-20T05:49:10;9.83;;;9.00;;
18140;SDS011;9196;49.194;12.526;2023-08-20T05:51:37;10.43;;;9.20;;
18140;SDS011;9196;49.194;12.526;2023-08-20T05:54:04;8.53;;;7.73;;
18140;SDS011;9196;49.194;12.526;2023-08-20T05:56:31;9.10;;;8.30;;
18140;SDS011;9196;49.194;12.526;2023-08-20T05:58:58;11.27;;;8.23;;
18140;SDS011;9196;49.194;12.526;2023-08-20T06:01:26;8.77;;;7.87;;
18140;SDS011;9196;49.194;12.526;2023-08-20T06:03:53;8.40;;;7.60;;
18140;SDS011;9196;49.194;12.526;2023-08-20T06:06:20;11.37;;;9.17;;
18140;SDS011;9196;49.194;12.526;2023-08-20T06:08:47;10.40;;;9.40;;
18140;SDS011;9196;49.194;12.526;2023-08-20T06:11:14;12.10;;;9.50;;
18140;SDS011;9196;49.194;12.526;2023-08-20T06:13:41;9.10;;;8.40;;
18140;SDS011;9196;49.194;12.526;2023-08-20T06:16:08;9.33;;;7.93;;
18140;SDS011;9196;49.194;12.526;2023-08-20T06:18:36;11.47;;;8.70;;
18140;SDS011;9196;49.194;12.526;2023-08-20T06:21:03;10.37;;;9.57;;
18140;SDS011;9196;49.194;12.526;2023-08-20T06:23:30;12.53;;;8.93;;
18140;SDS011;9196;49.194;12.526;2023-08-20T06:25:57;10.00;;;8.97;;
18140;SDS011;9196;49.194;12.526;2023-08-20T06:28:23;9.97;;;9.03;;
18140;SDS011;9196;49.194;12.526;2023-08-20T06:30:50;9.30;;;8.50;;
18140;SDS011;9196;49.194;12.526;2023-08-20T06:33:17;9.30;;;8.47;;
18140;SDS011;9196;49.194;12.526;2023-08-20T06:35:45;8.80;;;8.00;;
18140;SDS011;9196;49.194;12.526;2023-08-20T06:38:12;13.67;;;8.30;;
18140;SDS011;9196;49.194;12.526;2023-08-20T06:40:39;9.33;;;8.50;;
18140;SDS011;9196;49.194;12.526;2023-08-20T06:43:06;9.43;;;8.50;;
18140;SDS011;9196;49.194;12.526;2023-08-20T06:45:33;7.83;;;7.20;;
18140;SDS011;9196;49.194;12.526;2023-08-20T06:48:00;8.90;;;8.20;;
18140;SDS011;9196;49.194;12.526;2023-08-20T06:50:26;10.70;;;8.47;;
18140;SDS011;9196;49.194;12.526;2023-08-20T06:52:55;8.23;;;7.53;;
18140;SDS011;9196;49.194;12.526;2023-08-20T06:55:21;16.83;;;9.27;;
18140;SDS011;9196;49.194;12.526;2023-08-20T06:57:48;11.40;;;8.63;;
18140;SDS011;9196;49.194;12.526;2023-08-20T07:00:15;9.53;;;8.63;;
18140;SDS011;9196;49.194;12.526;2023-08-20T07:02:44;10.00;;;8.30;;
18140;SDS011;9196;49.194;12.526;2023-08-20T07:05:11;9.67;;;8.80;;
18140;SDS011;9196;49.194;12.526;2023-08-20T07:07:39;9.87;;;9.00;;
18140;SDS011;9196;49.194;12.526;2023-08-20T07:10:08;10.13;;;9.23;;
18140;SDS011;9196;49.194;12.526;2023-08-20T07:12:35;10.67;;;9.57;;
18140;SDS011;9196;49.194;12.526;2023-08-20T07:15:02;10.23;;;8.67;;
18140;SDS011;9196;49.194;12.526;2023-08-20T07:17:30;10.67;;;9.57;;
18140;SDS011;9196;49.194;12.526;2023-08-20T07:19:56;9.43;;;8.50;;
18140;SDS011;9196;49.194;12.526;2023-08-20T07:22:23;11.17;;;8.30;;
18140;SDS011;9196;49.194;12.526;2023-08-20T07:24:50;12.40;;;10.23;;
18140;SDS011;9196;49.194;12.526;2023-08-20T07:27:18;9.37;;;8.33;;
18140;SDS011;9196;49.194;12.526;2023-08-20T07:29:45;9.97;;;8.80;;
18140;SDS011;9196;49.194;12.526;2023-08-20T07:32:12;10.20;;;8.90;;
18140;SDS011;9196;49.194;12.526;2023-08-20T07:34:39;9.10;;;8.30;;
18140;SDS011;9196;49.194;12.526;2023-08-20T07:37:06;12.23;;;8.00;;
18140;SDS011;9196;49.194;12.526;2023-08-20T07:39:33;8.27;;;7.47;;
18140;SDS011;9196;49.194;12.526;2023-08-20T07:42:00;9.67;;;8.83;;
18140;SDS011;9196;49.194;12.526;2023-08-20T07:44:28;8.60;;;7.80;;
18140;SDS011;9196;49.194;12.526;2023-08-20T07:46:55;8.70;;;8.00;;
18140;SDS011;9196;49.194;12.526;2023-08-20T07:49:21;8.50;;;7.60;;
18140;SDS011;9196;49.194;12.526;2023-08-20T07:51:48;13.10;;;9.00;;
18140;SDS011;9196;49.194;12.526;2023-08-20T07:54:17;9.23;;;8.47;;
18140;SDS011;9196;49.194;12.526;2023-08-20T07:56:44;9.40;;;7.67;;
18140;SDS011;9196;49.194;12.526;2023-08-20T07:59:11;9.67;;;8.10;;
18140;SDS011;9196;49.194;12.526;2023-08-20T08:01:39;8.23;;;7.43;;
18140;SDS011;9196;49.194;12.526;2023-08-20T08:04:06;8.30;;;7.60;;
18140;SDS011;9196;49.194;12.526;2023-08-20T08:06:33;8.73;;;7.50;;
18140;SDS011;9196;49.194;12.526;2023-08-20T08:09:14;8.73;;;7.70;;
18140;SDS011;9196;49.194;12.526;2023-08-20T08:11:44;8.27;;;7.50;;
18140;SDS011;9196;49.194;12.526;2023-08-20T08:14:11;9.00;;;8.17;;
18140;SDS011;9196;49.194;12.526;2023-08-20T08:16:39;8.20;;;7.50;;
18140;SDS011;9196;49.194;12.526;2023-08-20T08:19:06;8.07;;;7.40;;
18140;SDS011;9196;49.194;12.526;2023-08-20T08:21:33;7.13;;;6.63;;
18140;SDS011;9196;49.194;12.526;2023-08-20T08:24:00;8.43;;;7.60;;
18140;SDS011;9196;49.194;12.526;2023-08-20T08:26:27;8.33;;;7.60;;
18140;SDS011;9196;49.194;12.526;2023-08-20T08:28:54;7.60;;;7.00;;
18140;SDS011;9196;49.194;12.526;2023-08-20T08:31:21;8.80;;;7.90;;
18140;SDS011;9196;49.194;12.526;2023-08-20T08:33:49;8.23;;;7.43;;
18140;SDS011;9196;49.194;12.526;2023-08-20T08:36:16;8.83;;;7.53;;
18140;SDS011;9196;49.194;12.526;2023-08-20T08:38:42;7.67;;;7.10;;
18140;SDS011;9196;49.194;12.526;2023-08-20T08:41:10;8.03;;;7.43;;
18140;SDS011;9196;49.194;12.526;2023-08-20T08:43:38;8.17;;;7.10;;
18140;SDS011;9196;49.194;12.526;2023-08-20T08:46:06;10.27;;;7.73;;
18140;SDS011;9196;49.194;12.526;2023-08-20T08:48:37;7.97;;;7.27;;
18140;SDS011;9196;49.194;12.526;2023-08-20T08:51:08;7.43;;;6.83;;
18140;SDS011;9196;49.194;12.526;2023-08-20T08:53:35;7.40;;;6.70;;
18140;SDS011;9196;49.194;12.526;2023-08-20T08:56:02;7.83;;;7.13;;
18140;SDS011;9196;49.194;12.526;2023-08-20T08:58:30;6.27;;;5.67;;
18140;SDS011;9196;49.194;12.526;2023-08-20T09:00:58;7.63;;;6.67;;
18140;SDS011;9196;49.194;12.526;2023-08-20T09:03:25;7.77;;;5.90;;
18140;SDS011;9196;49.194;12.526;2023-08-20T09:05:54;5.17;;;4.77;;
18140;SDS011;9196;49.194;12.526;2023-08-20T09:08:25;5.37;;;4.90;;
18140;SDS011;9196;49.194;12.526;2023-08-20T09:10:54;8.03;;;5.50;;
18140;SDS011;9196;49.194;12.526;2023-08-20T09:13:22;5.33;;;5.03;;
18140;SDS011;9196;49.194;12.526;2023-08-20T09:15:50;6.67;;;4.93;;
18140;SDS011;9196;49.194;12.526;2023-08-20T09:18:18;5.30;;;4.60;;
18140;SDS011;9196;49.194;12.526;2023-08-20T09:20:44;5.20;;;4.90;;
18140;SDS011;9196;49.194;12.526;2023-08-20T09:23:15;7.27;;;5.20;;
18140;SDS011;9196;49.194;12.526;2023-08-20T09:25:43;4.50;;;4.10;;
18140;SDS011;9196;49.194;12.526;2023-08-20T09:28:11;5.10;;;4.73;;
18140;SDS011;9196;49.194;12.526;2023-08-20T09:30:38;5.83;;;5.23;;
18140;SDS011;9196;49.194;12.526;2023-08-20T09:33:07;5.97;;;5.47;;
18140;SDS011;9196;49.194;12.526;2023-08-20T09:35:36;6.53;;;4.93;;
18140;SDS011;9196;49.194;12.526;2023-08-20T09:38:03;4.60;;;4.30;;
18140;SDS011;9196;49.194;12.526;2023-08-20T09:40:30;5.30;;;4.70;;
18140;SDS011;9196;49.194;12.526;2023-08-20T09:42:59;6.00;;;5.37;;
18140;SDS011;9196;49.194;12.526;2023-08-20T09:45:27;5.40;;;5.10;;
18140;SDS011;9196;49.194;12.526;2023-08-20T09:47:55;7.80;;;5.60;;
18140;SDS011;9196;49.194;12.526;2023-08-20T09:50:24;7.60;;;6.80;;
18140;SDS011;9196;49.194;12.526;2023-08-20T09:52:55;6.00;;;5.60;;
18140;SDS011;9196;49.194;12.526;2023-08-20T09:55:27;6.13;;;5.73;;
18140;SDS011;9196;49.194;12.526;2023-08-20T09:57:56;5.90;;;5.50;;
18140;SDS011;9196;49.194;12.526;2023-08-20T10:00:25;5.83;;;5.23;;
18140;SDS011;9196;49.194;12.526;2023-08-20T10:02:53;5.53;;;5.20;;
18140;SDS011;9196;49.194;12.526;2023-08-20T10:05:21;7.00;;;6.43;;
18140;SDS011;9196;49.194;12.526;2023-08-20T10:07:49;7.70;;;7.00;;
18140;SDS011;9196;49.194;12.526;2023-08-20T10:10:16;6.30;;;5.80;;
18140;SDS011;9196;49.194;12.526;2023-08-20T10:12:44;5.50;;;5.10;;
18140;SDS011;9196;49.194;12.526;2023-08-20T10:15:13;5.83;;;5.23;;
18140;SDS011;9196;49.194;12.526;2023-08-20T10:17:41;5.77;;;5.20;;
18140;SDS011;9196;49.194;12.526;2023-08-20T10:20:10;5.43;;;4.97;;
18140;SDS011;9196;49.194;12.526;2023-08-20T10:22:40;5.93;;;5.43;;
18140;SDS011;9196;49.194;12.526;2023-08-20T10:25:09;5.40;;;5.00;;
18140;SDS011;9196;49.194;12.526;2023-08-20T10:27:37;5.47;;;5.07;;
18140;SDS011;9196;49.194;12.526;2023-08-20T10:30:08;4.60;;;4.20;;
18140;SDS011;9196;49.194;12.526;2023-08-20T10:32:45;6.07;;;5.57;;
18140;SDS011;9196;49.194;12.526;2023-08-20T10:35:14;5.03;;;4.63;;
18140;SDS011;9196;49.194;12.526;2023-08-20T10:40:46;6.67;;;4.77;;
18140;SDS011;9196;49.194;12.526;2023-08-20T10:43:26;4.90;;;4.33;;
18140;SDS011;9196;49.194;12.526;2023-08-20T10:46:06;4.57;;;4.27;;
18140;SDS011;9196;49.194;12.526;2023-08-20T10:48:36;4.13;;;3.93;;
18140;SDS011;9196;49.194;12.526;2023-08-20T10:51:11;4.97;;;4.57;;
18140;SDS011;9196;49.194;12.526;2023-08-20T10:53:40;4.90;;;4.40;;
18140;SDS011;9196;49.194;12.526;2023-08-20T10:56:08;4.53;;;4.03;;
18140;SDS011;9196;49.194;12.526;2023-08-20T10:58:43;7.27;;;4.80;;
18140;SDS011;9196;49.194;12.526;2023-08-20T11:01:14;4.60;;;4.30;;
18140;SDS011;9196;49.194;12.526;2023-08-20T11:03:45;4.87;;;4.57;;
18140;SDS011;9196;49.194;12.526;2023-08-20T11:06:13;4.40;;;4.10;;
18140;SDS011;9196;49.194;12.526;2023-08-20T11:08:41;4.20;;;3.90;;
18140;SDS011;9196;49.194;12.526;2023-08-20T11:11:08;4.60;;;4.30;;
18140;SDS011;9196;49.194;12.526;2023-08-20T11:13:36;5.13;;;4.73;;
18140;SDS011;9196;49.194;12.526;2023-08-20T11:16:03;4.13;;;3.83;;
18140;SDS011;9196;49.194;12.526;2023-08-20T11:18:34;4.30;;;4.00;;
18140;SDS011;9196;49.194;12.526;2023-08-20T11:21:02;4.30;;;3.60;;
18140;SDS011;9196;49.194;12.526;2023-08-20T11:23:30;4.80;;;4.43;;
18140;SDS011;9196;49.194;12.526;2023-08-20T11:25:57;4.23;;;3.93;;
18140;SDS011;9196;49.194;12.526;2023-08-20T11:28:25;6.13;;;4.10;;
18140;SDS011;9196;49.194;12.526;2023-08-20T11:30:52;5.77;;;4.17;;
18140;SDS011;9196;49.194;12.526;2023-08-20T11:33:20;3.80;;;3.60;;
18140;SDS011;9196;49.194;12.526;2023-08-20T11:35:47;4.90;;;3.90;;
18140;SDS011;9196;49.194;12.526;2023-08-20T11:38:16;4.70;;;4.40;;
18140;SDS011;9196;49.194;12.526;2023-08-20T11:40:43;3.90;;;3.70;;
18140;SDS011;9196;49.194;12.526;2023-08-20T11:43:10;4.27;;;3.87;;
18140;SDS011;9196;49.194;12.526;2023-08-20T11:45:44;4.60;;;4.20;;
18140;SDS011;9196;49.194;12.526;2023-08-20T11:48:12;6.50;;;4.20;;
18140;SDS011;9196;49.194;12.526;2023-08-20T11:50:39;4.70;;;4.00;;
18140;SDS011;9196;49.194;12.526;2023-08-20T11:53:07;5.20;;;3.83;;
18140;SDS011;9196;49.194;12.526;2023-08-20T11:55:37;4.60;;;4.20;;
18140;SDS011;9196;49.194;12.526;2023-08-20T11:58:05;7.37;;;5.57;;
18140;SDS011;9196;49.194;12.526;2023-08-20T12:00:32;4.63;;;4.30;;
18140;SDS011;9196;49.194;12.526;2023-08-20T12:02:59;3.83;;;3.53;;
18140;SDS011;9196;49.194;12.526;2023-08-20T12:05:26;5.20;;;4.00;;
18140;SDS011;9196;49.194;12.526;2023-08-20T12:07:57;4.50;;;3.53;;
18140;SDS011;9196;49.194;12.526;2023-08-20T12:10:25;4.50;;;4.20;;
18140;SDS011;9196;49.194;12.526;2023-08-20T12:12:55;3.63;;;3.33;;
18140;SDS011;9196;49.194;12.526;2023-08-20T12:15:22;4.50;;;4.30;;
18140;SDS011;9196;49.194;12.526;2023-08-20T12:20:35;6.00;;;3.83;;
18140;SDS011;9196;49.194;12.526;2023-08-20T12:23:03;4.07;;;3.77;;
18140;SDS011;9196;49.194;12.526;2023-08-20T12:25:32;5.20;;;4.10;;
18140;SDS011;9196;49.194;12.526;2023-08-20T12:28:02;4.10;;;3.80;;
18140;SDS011;9196;49.194;12.526;2023-08-20T12:30:29;4.67;;;4.20;;
18140;SDS011;9196;49.194;12.526;2023-08-20T12:32:56;4.77;;;4.07;;
18140;SDS011;9196;49.194;12.526;2023-08-20T12:35:23;4.67;;;4.30;;
18140;SDS011;9196;49.194;12.526;2023-08-20T12:37:50;7.10;;;4.17;;
18140;SDS011;9196;49.194;12.526;2023-08-20T12:40:17;5.40;;;4.30;;
18140;SDS011;9196;49.194;12.526;2023-08-20T12:42:43;4.50;;;4.10;;
18140;SDS011;9196;49.194;12.526;2023-08-20T12:45:11;3.50;;;3.30;;
18140;SDS011;9196;49.194;12.526;2023-08-20T12:47:38;4.80;;;4.30;;
18140;SDS011;9196;49.194;12.526;2023-08-20T12:50:06;4.50;;;4.20;;
18140;SDS011;9196;49.194;12.526;2023-08-20T12:52:33;4.20;;;3.90;;
18140;SDS011;9196;49.194;12.526;2023-08-20T12:55:00;3.97;;;3.67;;
18140;SDS011;9196;49.194;12.526;2023-08-20T12:57:27;4.10;;;3.90;;
18140;SDS011;9196;49.194;12.526;2023-08-20T12:59:54;4.07;;;3.87;;
18140;SDS011;9196;49.194;12.526;2023-08-20T13:02:22;5.60;;;4.07;;
18140;SDS011;9196;49.194;12.526;2023-08-20T13:04:50;4.77;;;3.97;;
18140;SDS011;9196;49.194;12.526;2023-08-20T13:07:17;4.40;;;4.07;;
18140;SDS011;9196;49.194;12.526;2023-08-20T13:09:44;4.20;;;3.90;;
18140;SDS011;9196;49.194;12.526;2023-08-20T13:12:12;7.30;;;4.23;;
18140;SDS011;9196;49.194;12.526;2023-08-20T13:14:39;7.53;;;3.77;;
18140;SDS011;9196;49.194;12.526;2023-08-20T13:17:07;4.83;;;3.77;;
18140;SDS011;9196;49.194;12.526;2023-08-20T13:19:36;9.30;;;3.83;;
18140;SDS011;9196;49.194;12.526;2023-08-20T13:22:03;4.37;;;3.97;;
18140;SDS011;9196;49.194;12.526;2023-08-20T13:24:31;5.57;;;3.80;;
18140;SDS011;9196;49.194;12.526;2023-08-20T13:26:58;6.97;;;4.00;;
18140;SDS011;9196;49.194;12.526;2023-08-20T13:29:24;5.50;;;3.37;;
18140;SDS011;9196;49.194;12.526;2023-08-20T13:31:52;5.00;;;3.53;;
18140;SDS011;9196;49.194;12.526;2023-08-20T13:34:18;4.33;;;3.93;;
18140;SDS011;9196;49.194;12.526;2023-08-20T13:36:46;3.33;;;3.13;;
18140;SDS011;9196;49.194;12.526;2023-08-20T13:39:14;6.80;;;4.53;;
18140;SDS011;9196;49.194;12.526;2023-08-20T13:41:43;8.20;;;4.07;;
18140;SDS011;9196;49.194;12.526;2023-08-20T13:44:10;3.83;;;3.53;;
18140;SDS011;9196;49.194;12.526;2023-08-20T13:46:36;3.70;;;3.40;;
18140;SDS011;9196;49.194;12.526;2023-08-20T13:49:03;5.37;;;3.70;;
18140;SDS011;9196;49.194;12.526;2023-08-20T13:51:30;3.87;;;3.57;;
18140;SDS011;9196;49.194;12.526;2023-08-20T13:53:58;4.07;;;3.87;;
18140;SDS011;9196;49.194;12.526;2023-08-20T13:56:25;4.27;;;3.97;;
18140;SDS011;9196;49.194;12.526;2023-08-20T13:58:52;8.00;;;4.07;;
18140;SDS011;9196;49.194;12.526;2023-08-20T14:01:19;4.17;;;3.77;;
18140;SDS011;9196;49.194;12.526;2023-08-20T14:03:46;5.20;;;3.50;;
18140;SDS011;9196;49.194;12.526;2023-08-20T14:06:14;6.13;;;4.03;;
18140;SDS011;9196;49.194;12.526;2023-08-20T14:08:41;6.60;;;4.07;;
18140;SDS011;9196;49.194;12.526;2023-08-20T14:11:10;3.93;;;3.50;;
18140;SDS011;9196;49.194;12.526;2023-08-20T14:13:36;5.57;;;4.00;;
18140;SDS011;9196;49.194;12.526;2023-08-20T14:16:03;4.30;;;3.73;;
18140;SDS011;9196;49.194;12.526;2023-08-20T14:18:30;4.00;;;3.60;;
18140;SDS011;9196;49.194;12.526;2023-08-20T14:20:57;6.33;;;3.80;;
18140;SDS011;9196;49.194;12.526;2023-08-20T14:23:24;5.37;;;3.60;;
18140;SDS011;9196;49.194;12.526;2023-08-20T14:25:51;5.23;;;4.73;;
18140;SDS011;9196;49.194;12.526;2023-08-20T14:28:21;4.90;;;3.50;;
18140;SDS011;9196;49.194;12.526;2023-08-20T14:30:48;3.90;;;3.40;;
18140;SDS011;9196;49.194;12.526;2023-08-20T14:33:16;3.40;;;3.20;;
18140;SDS011;9196;49.194;12.526;2023-08-20T14:35:43;4.67;;;3.83;;
18140;SDS011;9196;49.194;12.526;2023-08-20T14:38:10;4.97;;;3.40;;
18140;SDS011;9196;49.194;12.526;2023-08-20T14:40:40;7.97;;;4.10;;
18140;SDS011;9196;49.194;12.526;2023-08-20T14:43:07;8.63;;;3.27;;
18140;SDS011;9196;49.194;12.526;2023-08-20T14:45:35;9.00;;;4.43;;
18140;SDS011;9196;49.194;12.526;2023-08-20T14:48:02;4.30;;;4.00;;
18140;SDS011;9196;49.194;12.526;2023-08-20T14:50:29;13.43;;;4.50;;
18140;SDS011;9196;49.194;12.526;2023-08-20T14:52:56;5.67;;;3.80;;
18140;SDS011;9196;49.194;12.526;2023-08-20T14:55:23;4.57;;;3.60;;